createdAt,value
2018-10-12T00:00:43.070Z,58.30
2018-10-12T00:03:17.140Z,58.46
2018-10-12T00:05:51.150Z,58.50
2018-10-12T00:08:25.103Z,58.42
2018-10-12T00:10:59.225Z,58.84
2018-10-12T00:13:33.145Z,58.72
2018-10-12T00:16:07.498Z,58.59
2018-10-12T00:18:41.352Z,58.88
2018-10-12T00:21:15.409Z,58.97
2018-10-12T00:23:49.331Z,58.60
2018-10-12T00:26:23.334Z,58.65
2018-10-12T00:28:57.325Z,58.88
2018-10-12T00:31:31.350Z,58.84
2018-10-12T00:34:05.529Z,58.64
2018-10-12T00:36:39.561Z,58.48
2018-10-12T00:39:13.624Z,58.51
2018-10-12T00:41:47.740Z,58.61
2018-10-12T00:44:21.650Z,58.65
2018-10-12T00:46:55.626Z,58.64
2018-10-12T00:49:29.579Z,58.54
2018-10-12T00:52:03.528Z,58.52
2018-10-12T00:54:37.519Z,58.79
2018-10-12T00:57:11.476Z,58.38
2018-10-12T00:59:45.473Z,58.83
2018-10-12T01:02:19.482Z,58.81
2018-10-12T01:04:53.417Z,58.83
2018-10-12T01:07:27.402Z,58.82
2018-10-12T01:10:01.336Z,59.16
2018-10-12T01:12:36.548Z,58.87
2018-10-12T01:15:10.602Z,58.93
2018-10-12T01:17:44.599Z,58.78
2018-10-12T01:20:18.633Z,58.86
2018-10-12T01:22:52.693Z,59.00
2018-10-12T01:25:26.648Z,59.08
2018-10-12T01:28:00.692Z,59.19
2018-10-12T01:30:34.617Z,59.30
2018-10-12T01:33:08.698Z,59.53
2018-10-12T01:35:42.499Z,59.33
2018-10-12T01:38:16.373Z,59.33
2018-10-12T01:40:50.257Z,59.62
2018-10-12T01:43:24.110Z,59.83
2018-10-12T01:45:57.956Z,59.88
2018-10-12T01:48:31.829Z,59.64
2018-10-12T01:51:05.675Z,59.86
2018-10-12T01:53:39.575Z,59.76
2018-10-12T01:56:13.402Z,59.96
2018-10-12T01:58:47.267Z,59.57
2018-10-12T02:01:21.099Z,59.70
2018-10-12T02:03:55.065Z,59.78
2018-10-12T02:06:28.894Z,59.80
2018-10-12T02:09:02.784Z,59.49
2018-10-12T02:11:36.602Z,59.80
2018-10-12T02:14:10.459Z,59.59
2018-10-12T02:16:44.669Z,59.68
2018-10-12T02:19:18.630Z,59.75
2018-10-12T02:21:52.486Z,59.83
2018-10-12T02:24:26.424Z,59.70
2018-10-12T02:27:00.329Z,59.89
2018-10-12T02:29:34.234Z,59.86
2018-10-12T02:32:08.119Z,59.94
2018-10-12T02:34:41.995Z,59.76
2018-10-12T02:37:15.818Z,59.57
2018-10-12T02:39:49.653Z,59.93
2018-10-12T02:42:23.447Z,60.01
2018-10-12T02:44:57.307Z,59.54
2018-10-12T02:47:31.172Z,59.77
2018-10-12T02:50:05.249Z,59.64
2018-10-12T02:52:39.112Z,59.36
2018-10-12T02:55:12.892Z,59.72
2018-10-12T02:57:46.737Z,59.69
2018-10-12T03:00:20.699Z,59.58
2018-10-12T03:02:54.511Z,59.67
2018-10-12T03:05:28.372Z,59.67
2018-10-12T03:08:02.209Z,59.42
2018-10-12T03:10:36.068Z,59.51
2018-10-12T03:13:09.890Z,59.34
2018-10-12T03:15:44.002Z,59.37
2018-10-12T03:18:17.815Z,59.51
2018-10-12T03:20:51.745Z,59.67
2018-10-12T03:23:25.574Z,59.66
2018-10-12T03:25:59.847Z,59.50
2018-10-12T03:28:35.289Z,59.59
2018-10-12T03:31:09.511Z,59.10
2018-10-12T03:33:43.409Z,59.44
2018-10-12T03:36:17.522Z,59.36
2018-10-12T03:38:51.374Z,59.34
2018-10-12T03:41:25.219Z,59.41
2018-10-12T03:43:59.153Z,59.49
2018-10-12T03:46:33.047Z,59.60
2018-10-12T03:49:07.068Z,59.41
2018-10-12T03:51:40.994Z,59.93
2018-10-12T03:54:14.871Z,59.74
2018-10-12T03:56:48.687Z,59.74
2018-10-12T03:59:22.555Z,59.65
2018-10-12T04:01:56.434Z,59.72
2018-10-12T04:04:30.286Z,59.78
2018-10-12T04:07:04.101Z,59.40
2018-10-12T04:09:37.974Z,59.90
2018-10-12T04:12:11.795Z,59.71
2018-10-12T04:14:45.654Z,59.39
2018-10-12T04:17:19.462Z,59.65
2018-10-12T04:19:53.332Z,59.48
2018-10-12T04:22:27.193Z,59.89
2018-10-12T04:25:01.105Z,59.99
2018-10-12T04:27:34.937Z,60.04
2018-10-12T04:30:08.837Z,60.18
2018-10-12T04:32:42.671Z,60.25
2018-10-12T04:35:16.524Z,60.25
2018-10-12T04:37:50.384Z,60.19
2018-10-12T04:41:29.992Z,59.81
2018-10-12T04:44:04.248Z,60.02
2018-10-12T04:46:40.931Z,60.23
2018-10-12T04:49:16.449Z,60.28
2018-10-12T04:51:55.096Z,60.43
2018-10-12T04:54:29.441Z,60.59
2018-10-12T04:57:03.299Z,60.52
2018-10-12T04:59:37.115Z,60.53
2018-10-12T05:02:11.191Z,60.55
2018-10-12T05:04:45.130Z,60.19
2018-10-12T05:07:19.157Z,60.53
2018-10-12T05:09:53.038Z,60.47
2018-10-12T05:12:35.540Z,60.39
2018-10-12T05:15:09.345Z,60.47
2018-10-12T05:17:43.302Z,60.34
2018-10-12T05:20:17.324Z,60.29
2018-10-12T05:22:51.187Z,60.29
2018-10-12T05:25:25.028Z,60.43
2018-10-12T05:27:58.935Z,60.39
2018-10-12T05:30:32.748Z,60.65
2018-10-12T05:33:06.787Z,60.47
2018-10-12T05:35:40.632Z,60.38
2018-10-12T05:38:14.688Z,60.14
2018-10-12T05:40:48.570Z,60.32
2018-10-12T05:43:22.686Z,60.11
2018-10-12T05:45:56.442Z,60.38
2018-10-12T05:48:41.264Z,60.52
2018-10-12T05:51:16.181Z,60.38
2018-10-12T05:53:50.308Z,60.80
2018-10-12T05:56:29.092Z,60.80
2018-10-12T05:59:03.262Z,60.54
2018-10-12T06:01:37.125Z,60.90
2018-10-12T06:04:11.102Z,61.08
2018-10-12T06:06:44.911Z,61.04
2018-10-12T06:09:18.877Z,61.00
2018-10-12T06:11:52.727Z,60.88
2018-10-12T06:14:26.574Z,60.91
2018-10-12T06:17:00.429Z,61.09
2018-10-12T06:19:34.371Z,60.81
2018-10-12T06:22:08.339Z,60.82
2018-10-12T06:24:42.187Z,60.81
2018-10-12T06:27:15.998Z,60.84
2018-10-12T06:29:49.896Z,60.80
2018-10-12T06:32:23.721Z,61.03
2018-10-12T06:34:57.561Z,61.03
2018-10-12T06:37:31.388Z,60.92
2018-10-12T06:40:05.600Z,60.71
2018-10-12T06:42:39.394Z,60.92
2018-10-12T06:45:13.287Z,60.75
2018-10-12T06:47:47.125Z,60.94
2018-10-12T06:50:20.981Z,61.04
2018-10-12T06:52:54.824Z,61.03
2018-10-12T06:55:28.667Z,60.95
2018-10-12T06:58:02.498Z,61.21
2018-10-12T07:00:36.376Z,61.12
2018-10-12T07:03:10.357Z,60.88
2018-10-12T07:05:44.497Z,61.04
2018-10-12T07:08:18.360Z,60.84
2018-10-12T07:10:52.300Z,60.88
2018-10-12T07:13:26.154Z,60.67
2018-10-12T07:16:00.036Z,60.73
2018-10-12T07:18:33.920Z,60.61
2018-10-12T07:21:07.758Z,60.66
2018-10-12T07:23:41.582Z,60.45
2018-10-12T07:26:16.206Z,60.91
2018-10-12T07:28:50.516Z,60.31
2018-10-12T07:31:24.423Z,60.34
2018-10-12T07:33:58.268Z,60.19
2018-10-12T07:36:32.226Z,60.19
2018-10-12T07:39:08.263Z,60.08
2018-10-12T07:41:42.135Z,59.67
2018-10-12T07:44:15.953Z,59.67
2018-10-12T07:46:49.898Z,59.62
2018-10-12T07:49:23.856Z,59.55
2018-10-12T07:51:57.743Z,60.06
2018-10-12T07:54:31.544Z,59.79
2018-10-12T07:57:11.812Z,60.05
2018-10-12T07:59:46.146Z,60.49
2018-10-12T08:02:20.003Z,60.34
2018-10-12T08:04:53.835Z,60.52
2018-10-12T08:07:27.750Z,60.64
2018-10-12T08:10:01.724Z,60.56
2018-10-12T08:12:35.629Z,60.41
2018-10-12T08:15:09.476Z,59.89
2018-10-12T08:17:43.383Z,60.02
2018-10-12T08:20:17.441Z,60.22
2018-10-12T08:22:51.330Z,59.71
2018-10-12T08:25:25.153Z,60.03
2018-10-12T08:27:59.060Z,59.58
2018-10-12T08:30:32.990Z,59.84
2018-10-12T08:33:06.971Z,59.57
2018-10-12T08:35:40.764Z,58.96
2018-10-12T08:38:14.651Z,58.75
2018-10-12T08:40:48.548Z,58.11
2018-10-12T08:43:22.573Z,57.80
2018-10-12T08:45:56.411Z,57.02
2018-10-12T08:48:32.079Z,56.83
2018-10-12T08:51:05.917Z,55.92
2018-10-12T08:53:39.800Z,55.47
2018-10-12T08:56:13.864Z,54.94
2018-10-12T08:58:47.697Z,54.50
2018-10-12T09:01:21.574Z,52.85
2018-10-12T09:03:55.521Z,52.04
2018-10-12T09:06:29.380Z,51.55
2018-10-12T09:09:03.658Z,50.82
2018-10-12T09:11:37.850Z,51.03
2018-10-12T09:14:11.696Z,50.10
2018-10-12T09:16:45.529Z,49.49
2018-10-12T09:19:19.444Z,49.25
2018-10-12T09:21:53.294Z,47.60
2018-10-12T09:24:27.152Z,47.78
2018-10-12T09:27:00.976Z,46.95
2018-10-12T09:29:34.834Z,47.10
2018-10-12T09:32:08.672Z,47.45
2018-10-12T09:34:42.604Z,47.42
2018-10-12T09:37:16.437Z,47.56
2018-10-12T09:39:50.320Z,47.02
2018-10-12T09:42:24.504Z,47.06
2018-10-12T09:44:58.351Z,47.54
2018-10-12T09:47:32.184Z,46.83
2018-10-12T09:50:06.172Z,47.11
2018-10-12T09:52:39.998Z,47.54
2018-10-12T09:55:13.843Z,46.29
2018-10-12T09:57:47.680Z,46.28
2018-10-12T10:00:26.625Z,46.04
2018-10-12T10:03:05.514Z,46.30
2018-10-12T10:05:39.367Z,46.06
2018-10-12T10:08:13.343Z,45.56
2018-10-12T10:10:47.060Z,45.93
2018-10-12T10:13:20.907Z,45.92
2018-10-12T10:15:54.777Z,45.60
2018-10-12T10:18:28.621Z,45.73
2018-10-12T10:21:02.540Z,45.40
2018-10-12T10:23:36.478Z,44.76
2018-10-12T10:26:10.347Z,44.60
2018-10-12T10:28:44.182Z,44.80
2018-10-12T10:31:18.117Z,44.50
2018-10-12T10:33:51.939Z,44.39
2018-10-12T10:36:26.445Z,44.61
2018-10-12T10:39:00.061Z,44.40
2018-10-12T10:41:33.892Z,43.43
2018-10-12T10:44:07.890Z,44.38
2018-10-12T10:46:41.798Z,44.51
2018-10-12T10:49:15.593Z,43.84
2018-10-12T10:51:49.506Z,44.44
2018-10-12T10:54:23.468Z,44.02
2018-10-12T10:57:02.311Z,43.33
2018-10-12T10:59:37.009Z,43.06
2018-10-12T11:02:10.886Z,43.55
2018-10-12T11:04:44.773Z,42.96
2018-10-12T11:07:18.649Z,43.60
2018-10-12T11:09:52.476Z,42.41
2018-10-12T11:12:26.493Z,43.05
2018-10-12T11:15:00.200Z,42.67
2018-10-12T11:17:34.144Z,42.62
2018-10-12T11:20:08.290Z,42.15
2018-10-12T11:22:42.261Z,43.09
2018-10-12T11:25:16.066Z,41.04
2018-10-12T11:27:50.116Z,41.63
2018-10-12T11:30:24.044Z,41.99
2018-10-12T11:32:58.005Z,40.95
2018-10-12T11:35:31.892Z,41.13
2018-10-12T11:38:05.757Z,39.99
2018-10-12T11:40:39.875Z,40.64
2018-10-12T11:43:24.888Z,40.66
2018-10-12T11:45:59.409Z,39.09
2018-10-12T11:48:33.426Z,40.37
2018-10-12T11:51:07.284Z,39.49
2018-10-12T11:53:41.133Z,38.90
2018-10-12T11:56:14.950Z,38.35
2018-10-12T11:58:50.083Z,38.86
2018-10-12T12:01:24.441Z,38.33
2018-10-12T12:03:58.374Z,38.73
2018-10-12T12:06:32.245Z,36.80
2018-10-12T12:09:07.150Z,37.47
2018-10-12T12:11:41.064Z,37.53
2018-10-12T12:14:14.962Z,36.21
2018-10-12T12:16:48.766Z,36.47
2018-10-12T12:19:22.671Z,37.36
2018-10-12T12:21:56.462Z,37.15
2018-10-12T12:24:30.327Z,37.98
2018-10-12T12:27:04.193Z,37.44
2018-10-12T12:29:38.091Z,38.85
2018-10-12T12:32:11.913Z,38.81
2018-10-12T12:34:45.977Z,38.68
2018-10-12T12:37:19.725Z,39.16
2018-10-12T12:39:53.731Z,38.49
2018-10-12T12:42:27.537Z,39.17
2018-10-12T12:45:01.468Z,38.76
2018-10-12T12:47:35.678Z,37.44
2018-10-12T12:50:09.532Z,38.96
2018-10-12T12:52:43.439Z,39.54
2018-10-12T12:55:17.395Z,38.52
2018-10-12T12:57:51.220Z,38.46
2018-10-12T13:00:25.201Z,37.93
2018-10-12T13:02:59.004Z,39.08
2018-10-12T13:05:32.848Z,39.60
2018-10-12T13:08:06.694Z,38.57
2018-10-12T13:10:40.688Z,39.86
2018-10-12T13:13:14.532Z,39.30
2018-10-12T13:15:48.544Z,39.43
2018-10-12T13:18:22.340Z,39.25
2018-10-12T13:20:56.176Z,38.93
2018-10-12T13:23:30.006Z,39.19
2018-10-12T13:26:04.040Z,40.13
2018-10-12T13:28:37.766Z,39.63
2018-10-12T13:31:11.615Z,39.45
2018-10-12T13:33:45.448Z,39.70
2018-10-12T13:36:19.297Z,39.71
2018-10-12T13:38:53.161Z,39.01
2018-10-12T13:41:26.993Z,39.49
2018-10-12T13:44:00.809Z,39.33
2018-10-12T13:46:34.839Z,39.06
2018-10-12T13:49:08.750Z,39.63
2018-10-12T13:51:42.558Z,39.94
2018-10-12T13:54:16.425Z,40.38
2018-10-12T13:56:54.339Z,39.21
2018-10-12T13:59:29.979Z,40.11
2018-10-12T14:02:03.822Z,40.18
2018-10-12T14:04:37.657Z,40.47
2018-10-12T14:07:11.602Z,40.40
2018-10-12T14:09:45.405Z,39.88
2018-10-12T14:12:19.266Z,39.11
2018-10-12T14:14:53.093Z,40.03
2018-10-12T14:17:26.947Z,40.65
2018-10-12T14:20:00.784Z,40.00
2018-10-12T14:22:34.644Z,39.88
2018-10-12T14:25:08.573Z,39.67
2018-10-12T14:27:42.531Z,39.29
2018-10-12T14:30:16.375Z,39.55
2018-10-12T14:32:50.295Z,40.15
2018-10-12T14:35:24.125Z,39.82
2018-10-12T14:37:58.088Z,39.97
2018-10-12T14:40:31.984Z,40.03
2018-10-12T14:43:05.973Z,40.57
2018-10-12T14:45:39.907Z,40.48
2018-10-12T14:48:13.848Z,40.28
2018-10-12T14:50:47.663Z,39.91
2018-10-12T14:53:21.569Z,39.90
2018-10-12T14:55:55.411Z,40.85
2018-10-12T14:58:29.522Z,40.54
2018-10-12T15:01:03.398Z,40.82
2018-10-12T15:03:37.263Z,40.16
2018-10-12T15:06:11.070Z,40.00
2018-10-12T15:08:59.624Z,40.56
2018-10-12T15:11:33.441Z,40.69
2018-10-12T15:14:07.468Z,41.41
2018-10-12T15:16:41.309Z,40.60
2018-10-12T15:19:15.144Z,40.82
2018-10-12T15:21:49.062Z,40.85
2018-10-12T15:24:22.971Z,41.36
2018-10-12T15:26:56.793Z,41.24
2018-10-12T15:29:30.745Z,41.62
2018-10-12T15:32:04.556Z,41.95
2018-10-12T15:34:38.433Z,42.20
2018-10-12T15:37:12.303Z,42.41
2018-10-12T15:39:46.148Z,42.09
2018-10-12T15:42:19.990Z,42.12
2018-10-12T15:44:53.836Z,42.50
2018-10-12T15:47:27.835Z,42.35
2018-10-12T15:50:01.803Z,42.47
2018-10-12T15:52:35.608Z,42.97
2018-10-12T15:55:09.631Z,43.07
2018-10-12T15:57:43.467Z,42.77
2018-10-12T16:00:17.321Z,42.92
2018-10-12T16:02:51.221Z,43.41
2018-10-12T16:05:25.080Z,43.47
2018-10-12T16:07:58.934Z,43.54
2018-10-12T16:10:33.008Z,43.44
2018-10-12T16:13:07.133Z,43.76
2018-10-12T16:15:41.007Z,43.87
2018-10-12T16:18:14.890Z,43.57
2018-10-12T16:20:48.826Z,44.07
2018-10-12T16:23:22.643Z,44.09
2018-10-12T16:26:31.268Z,44.12
2018-10-12T16:29:05.124Z,44.49
2018-10-12T16:31:39.000Z,45.05
2018-10-12T16:34:12.798Z,45.11
2018-10-12T16:36:46.784Z,46.04
2018-10-12T16:39:20.524Z,46.25
2018-10-12T16:41:54.372Z,46.10
2018-10-12T16:44:28.221Z,46.76
2018-10-12T16:47:02.099Z,47.04
2018-10-12T16:49:36.228Z,46.92
2018-10-12T16:52:10.063Z,47.21
2018-10-12T16:54:43.931Z,47.94
2018-10-12T16:57:21.896Z,47.91
2018-10-12T16:59:55.682Z,47.74
2018-10-12T17:02:29.543Z,48.04
2018-10-12T17:05:03.360Z,48.09
2018-10-12T17:07:37.196Z,48.55
2018-10-12T17:10:11.046Z,48.56
2018-10-12T17:12:44.938Z,48.59
2018-10-12T17:15:18.782Z,49.08
2018-10-12T17:17:52.624Z,49.33
2018-10-12T17:20:26.601Z,49.42
2018-10-12T17:23:00.428Z,49.66
2018-10-12T17:25:34.281Z,49.41
2018-10-12T17:28:08.954Z,50.01
2018-10-12T17:30:42.788Z,50.10
2018-10-12T17:33:16.621Z,50.62
2018-10-12T17:35:50.412Z,50.42
2018-10-12T17:38:24.287Z,50.97
2018-10-12T17:40:58.248Z,51.35
2018-10-12T17:43:32.070Z,51.50
2018-10-12T17:46:06.600Z,52.03
2018-10-12T17:48:40.454Z,52.32
2018-10-12T17:51:14.669Z,52.50
2018-10-12T17:53:48.549Z,52.64
2018-10-12T17:56:22.406Z,52.56
2018-10-12T17:58:56.235Z,52.87
2018-10-12T18:01:30.042Z,52.81
2018-10-12T18:04:04.009Z,52.96
2018-10-12T18:06:37.810Z,53.31
2018-10-12T18:09:11.664Z,52.94
2018-10-12T18:11:45.493Z,53.62
2018-10-12T18:14:19.499Z,53.57
2018-10-12T18:16:53.248Z,53.58
2018-10-12T18:19:27.204Z,53.94
2018-10-12T18:22:01.023Z,53.37
2018-10-12T18:24:34.843Z,53.54
2018-10-12T18:27:09.065Z,53.47
2018-10-12T18:29:42.996Z,53.88
2018-10-12T18:32:16.802Z,53.95
2018-10-12T18:34:50.641Z,53.71
2018-10-12T18:37:24.515Z,53.73
2018-10-12T18:39:58.590Z,54.02
2018-10-12T18:42:32.433Z,54.79
2018-10-12T18:45:06.562Z,55.10
2018-10-12T18:47:40.427Z,54.37
2018-10-12T18:50:14.355Z,54.11
2018-10-12T18:52:48.179Z,54.39
2018-10-12T18:55:22.057Z,54.69
2018-10-12T18:57:55.889Z,54.72
2018-10-12T19:00:29.759Z,54.53
2018-10-12T19:03:03.640Z,55.34
2018-10-12T19:05:38.525Z,54.91
2018-10-12T19:08:12.467Z,55.97
2018-10-12T19:10:47.395Z,56.04
2018-10-12T19:13:21.407Z,55.87
2018-10-12T19:15:55.287Z,55.61
2018-10-12T19:18:29.090Z,56.12
2018-10-12T19:21:02.950Z,56.04
2018-10-12T19:23:37.964Z,56.41
2018-10-12T19:26:13.009Z,56.44
2018-10-12T19:28:47.651Z,56.63
2018-10-12T19:31:21.566Z,56.75
2018-10-12T19:33:55.542Z,56.31
2018-10-12T19:36:29.390Z,56.75
2018-10-12T19:39:03.404Z,56.77
2018-10-12T19:41:37.253Z,57.27
2018-10-12T19:44:11.169Z,57.46
2018-10-12T19:46:45.004Z,57.45
2018-10-12T19:49:18.969Z,57.06
2018-10-12T19:51:52.856Z,56.71
2018-10-12T19:54:26.645Z,57.23
2018-10-12T19:57:00.643Z,57.29
2018-10-12T19:59:35.091Z,57.69
2018-10-12T20:02:10.496Z,57.79
2018-10-12T20:04:44.289Z,57.64
2018-10-12T20:07:19.050Z,58.39
2018-10-12T20:09:54.198Z,58.01
2018-10-12T20:12:28.063Z,58.61
2018-10-12T20:15:01.921Z,58.60
2018-10-12T20:17:35.814Z,58.60
2018-10-12T20:20:09.510Z,58.32
2018-10-12T20:22:43.451Z,57.94
2018-10-12T20:25:17.321Z,58.06
2018-10-12T20:27:51.330Z,57.98
2018-10-12T20:30:25.164Z,58.12
2018-10-12T20:32:59.096Z,57.80
2018-10-12T20:35:33.040Z,58.11
2018-10-12T20:38:07.431Z,58.22
2018-10-12T20:40:41.385Z,58.39
2018-10-12T20:43:15.374Z,58.36
2018-10-12T20:45:49.436Z,58.31
2018-10-12T20:48:23.702Z,58.29
2018-10-12T20:50:58.851Z,58.62
2018-10-12T20:53:33.029Z,58.97
2018-10-12T20:56:07.253Z,58.99
2018-10-12T20:58:41.481Z,58.92
2018-10-12T21:01:15.456Z,59.11
2018-10-12T21:03:49.515Z,59.06
2018-10-12T21:06:23.936Z,59.29
2018-10-12T21:08:58.396Z,59.41
2018-10-12T21:11:32.326Z,59.18
2018-10-12T21:14:06.469Z,59.40
2018-10-12T21:16:40.821Z,59.20
2018-10-12T21:19:14.815Z,59.43
2018-10-12T21:21:48.726Z,58.82
2018-10-12T21:24:22.884Z,59.26
2018-10-12T21:26:56.989Z,59.04
2018-10-12T21:29:30.892Z,59.04
2018-10-12T21:32:04.729Z,59.42
2018-10-12T21:34:38.627Z,59.19
2018-10-12T21:37:12.551Z,59.31
2018-10-12T21:39:46.426Z,59.41
2018-10-12T21:42:20.487Z,59.45
2018-10-12T21:44:54.352Z,59.53
2018-10-12T21:47:28.242Z,59.42
2018-10-12T21:50:02.339Z,59.19
2018-10-12T21:52:36.165Z,59.05
2018-10-12T21:55:10.193Z,59.29
2018-10-12T21:57:44.018Z,59.39
2018-10-12T22:00:18.538Z,59.94
2018-10-12T22:02:52.398Z,59.79
2018-10-12T22:05:26.909Z,59.68
2018-10-12T22:08:02.179Z,59.82
2018-10-12T22:10:36.573Z,60.15
2018-10-12T22:13:10.816Z,60.39
2018-10-12T22:15:44.911Z,60.80
2018-10-12T22:18:19.192Z,60.78
2018-10-12T22:20:53.246Z,60.82
2018-10-12T22:23:28.448Z,60.77
2018-10-12T22:26:02.868Z,60.78
2018-10-12T22:28:37.371Z,60.93
2018-10-12T22:31:11.664Z,60.73
2018-10-12T22:33:45.478Z,59.53
2018-10-12T22:36:19.733Z,60.55
2018-10-12T22:38:54.188Z,60.46
2018-10-12T22:41:28.220Z,60.27
2018-10-12T22:44:02.120Z,60.23
2018-10-12T22:46:36.180Z,60.65
2018-10-12T22:49:10.021Z,60.89
2018-10-12T22:51:44.017Z,60.91
2018-10-12T22:54:18.327Z,60.71
2018-10-12T22:56:52.804Z,60.78
2018-10-12T22:59:26.819Z,60.93
2018-10-12T23:02:01.800Z,60.83
2018-10-12T23:04:36.623Z,60.87
2018-10-12T23:07:11.241Z,60.77
2018-10-12T23:09:45.173Z,61.19
2018-10-12T23:12:19.132Z,61.25
2018-10-12T23:14:53.052Z,61.38
2018-10-12T23:17:27.284Z,60.99
2018-10-12T23:20:01.107Z,60.92
2018-10-12T23:22:34.947Z,60.98
2018-10-12T23:25:08.856Z,60.94
2018-10-12T23:27:43.015Z,60.64
2018-10-12T23:30:16.875Z,60.71
2018-10-12T23:32:50.831Z,60.80
2018-10-12T23:35:24.634Z,60.62
2018-10-12T23:37:58.648Z,60.57
2018-10-12T23:40:32.669Z,60.66
2018-10-12T23:43:07.131Z,60.79
2018-10-12T23:45:40.961Z,60.74
2018-10-12T23:48:16.033Z,60.40
2018-10-12T23:50:50.028Z,60.22
2018-10-12T23:53:23.885Z,59.85
2018-10-12T23:55:57.826Z,60.44
2018-10-12T23:58:31.919Z,60.26
